createdAt,value
2019-02-25T00:00:11.825Z,60.10
2019-02-25T00:02:42.223Z,59.70
2019-02-25T00:05:09.690Z,59.50
2019-02-25T00:07:36.973Z,59.80
2019-02-25T00:10:05.371Z,59.80
2019-02-25T00:12:33.151Z,60.40
2019-02-25T00:15:00.416Z,59.60
2019-02-25T00:17:27.804Z,59.90
2019-02-25T00:19:55.110Z,59.10
2019-02-25T00:22:22.394Z,58.70
2019-02-25T00:24:49.651Z,58.80
2019-02-25T00:27:17.071Z,58.70
2019-02-25T00:29:44.393Z,58.50
2019-02-25T00:32:11.749Z,58.60
2019-02-25T00:34:39.031Z,59.00
2019-02-25T00:37:06.316Z,58.90
2019-02-25T00:39:33.644Z,58.90
2019-02-25T00:42:00.893Z,59.00
2019-02-25T00:44:28.262Z,59.40
2019-02-25T00:46:55.538Z,59.50
2019-02-25T00:49:22.828Z,59.40
2019-02-25T00:51:51.331Z,59.60
2019-02-25T00:54:18.692Z,59.70
2019-02-25T00:56:45.985Z,60.00
2019-02-25T00:59:14.568Z,59.60
2019-02-25T01:01:41.849Z,60.20
2019-02-25T01:04:09.112Z,60.10
2019-02-25T01:06:37.529Z,59.80
2019-02-25T01:09:07.676Z,59.80
2019-02-25T01:11:35.367Z,60.50
2019-02-25T01:14:02.968Z,60.60
2019-02-25T01:16:30.289Z,61.50
2019-02-25T01:18:57.567Z,60.80
2019-02-25T01:21:24.820Z,61.20
2019-02-25T01:23:52.100Z,61.40
2019-02-25T01:26:19.436Z,61.70
2019-02-25T01:28:46.723Z,61.60
2019-02-25T01:31:14.120Z,61.40
2019-02-25T01:33:41.368Z,61.40
2019-02-25T01:36:08.664Z,61.20
2019-02-25T01:38:35.980Z,60.50
2019-02-25T01:41:03.272Z,60.70
2019-02-25T01:43:30.615Z,61.00
2019-02-25T01:45:59.109Z,60.40
2019-02-25T01:48:26.452Z,60.20
2019-02-25T01:50:53.910Z,59.70
2019-02-25T01:53:21.252Z,59.30
2019-02-25T01:55:48.528Z,59.30
2019-02-25T01:58:15.857Z,59.90
2019-02-25T02:00:43.230Z,59.60
2019-02-25T02:03:10.596Z,59.40
2019-02-25T02:05:37.896Z,59.10
2019-02-25T02:08:05.174Z,59.10
2019-02-25T02:10:32.515Z,59.20
2019-02-25T02:12:59.987Z,58.80
2019-02-25T02:15:27.353Z,58.70
2019-02-25T02:17:54.686Z,58.60
2019-02-25T02:20:21.968Z,58.90
2019-02-25T02:22:49.249Z,58.80
2019-02-25T02:25:16.506Z,58.90
2019-02-25T02:27:45.115Z,59.20
2019-02-25T02:30:34.967Z,59.80
2019-02-25T02:33:02.382Z,60.00
2019-02-25T02:35:29.920Z,60.70
2019-02-25T02:37:57.198Z,61.10
2019-02-25T02:40:24.449Z,63.00
2019-02-25T02:42:53.232Z,62.50
2019-02-25T02:45:30.742Z,62.20
2019-02-25T02:48:20.126Z,61.70
2019-02-25T02:50:47.384Z,61.80
2019-02-25T02:53:14.686Z,62.10
2019-02-25T02:55:43.063Z,62.00
2019-02-25T02:58:11.359Z,62.00
2019-02-25T03:00:38.688Z,62.10
2019-02-25T03:03:07.302Z,62.50
2019-02-25T03:05:34.608Z,62.70
2019-02-25T03:08:01.909Z,62.20
2019-02-25T03:10:29.202Z,62.10
2019-02-25T03:12:56.527Z,63.30
2019-02-25T03:15:23.906Z,63.10
2019-02-25T03:17:51.187Z,63.40
2019-02-25T03:20:18.630Z,63.20
2019-02-25T03:22:45.921Z,63.10
2019-02-25T03:25:14.630Z,63.90
2019-02-25T03:27:41.973Z,63.70
2019-02-25T03:30:14.913Z,64.00
2019-02-25T03:32:42.182Z,64.00
2019-02-25T03:35:09.689Z,64.20
2019-02-25T03:37:37.149Z,64.50
2019-02-25T03:40:05.819Z,64.50
2019-02-25T03:42:33.428Z,64.30
2019-02-25T03:45:00.757Z,64.50
2019-02-25T03:47:30.399Z,64.70
2019-02-25T03:49:57.668Z,64.70
2019-02-25T03:52:26.144Z,64.30
2019-02-25T03:54:53.450Z,63.70
2019-02-25T03:57:20.776Z,64.00
2019-02-25T03:59:48.072Z,63.90
2019-02-25T04:02:16.428Z,63.50
2019-02-25T04:04:43.745Z,62.80
2019-02-25T04:07:11.154Z,62.60
2019-02-25T04:09:41.784Z,62.80
2019-02-25T04:12:10.075Z,63.10
2019-02-25T04:14:37.424Z,63.40
2019-02-25T04:17:04.749Z,63.00
2019-02-25T04:19:32.145Z,63.20
2019-02-25T04:21:59.452Z,63.50
2019-02-25T04:24:26.720Z,63.10
2019-02-25T04:26:55.649Z,62.50
2019-02-25T04:29:23.404Z,62.70
2019-02-25T04:31:50.745Z,62.60
2019-02-25T04:34:18.043Z,62.30
2019-02-25T04:36:45.340Z,63.30
2019-02-25T04:39:12.703Z,63.80
2019-02-25T04:41:40.010Z,63.90
2019-02-25T04:44:08.536Z,63.70
2019-02-25T04:46:37.126Z,64.20
2019-02-25T04:49:04.405Z,64.50
2019-02-25T04:51:31.696Z,64.50
2019-02-25T04:53:59.002Z,64.70
2019-02-25T04:56:26.221Z,65.00
2019-02-25T04:58:53.536Z,65.30
2019-02-25T05:01:20.854Z,65.70
2019-02-25T05:03:48.137Z,65.70
2019-02-25T05:06:15.480Z,65.80
2019-02-25T05:08:42.799Z,65.40
2019-02-25T05:11:10.116Z,65.40
2019-02-25T05:13:37.362Z,65.40
2019-02-25T05:16:06.515Z,65.30
2019-02-25T05:18:33.801Z,65.20
2019-02-25T05:21:01.103Z,65.30
2019-02-25T05:23:28.565Z,65.30
2019-02-25T05:25:57.709Z,65.20
2019-02-25T05:28:24.957Z,65.30
2019-02-25T05:30:52.254Z,65.30
2019-02-25T05:33:19.579Z,65.00
2019-02-25T05:35:48.185Z,65.00
2019-02-25T05:38:16.571Z,65.40
2019-02-25T05:40:43.870Z,65.70
2019-02-25T05:43:11.213Z,65.60
2019-02-25T05:45:39.731Z,65.60
2019-02-25T05:48:07.064Z,65.40
2019-02-25T05:50:34.371Z,65.10
2019-02-25T05:53:03.700Z,64.30
2019-02-25T05:55:30.982Z,64.40
2019-02-25T05:57:58.279Z,64.80
2019-02-25T06:00:26.296Z,64.40
2019-02-25T06:02:53.753Z,64.60
2019-02-25T06:05:21.124Z,65.00
2019-02-25T06:07:48.451Z,65.00
2019-02-25T06:10:15.786Z,64.70
2019-02-25T06:12:43.120Z,65.10
2019-02-25T06:15:11.438Z,64.30
2019-02-25T06:17:38.784Z,64.20
2019-02-25T06:20:07.465Z,64.30
2019-02-25T06:22:34.758Z,64.30
2019-02-25T06:25:02.119Z,64.60
2019-02-25T06:27:30.954Z,64.70
2019-02-25T06:29:58.494Z,64.70
2019-02-25T06:32:25.844Z,64.80
2019-02-25T06:34:53.171Z,65.50
2019-02-25T06:37:20.489Z,65.30
2019-02-25T06:39:47.837Z,64.70
2019-02-25T06:42:15.136Z,64.60
2019-02-25T06:44:42.428Z,64.80
2019-02-25T06:47:09.669Z,64.70
2019-02-25T06:49:36.986Z,64.30
2019-02-25T06:52:04.267Z,64.00
2019-02-25T06:54:31.544Z,63.50
2019-02-25T06:56:58.816Z,64.10
2019-02-25T06:59:27.300Z,64.10
2019-02-25T07:01:54.577Z,63.60
2019-02-25T07:04:42.641Z,63.20
2019-02-25T07:07:13.429Z,63.30
2019-02-25T07:10:00.425Z,63.90
2019-02-25T07:12:39.154Z,63.90
2019-02-25T07:15:11.746Z,64.00
2019-02-25T07:18:14.193Z,63.80
2019-02-25T07:20:52.405Z,63.60
2019-02-25T07:23:38.162Z,63.20
2019-02-25T07:26:43.574Z,63.30
2019-02-25T07:29:49.085Z,63.70
2019-02-25T07:32:26.034Z,63.70
2019-02-25T07:35:11.829Z,63.40
2019-02-25T07:38:07.747Z,64.10
2019-02-25T07:40:53.326Z,64.60
2019-02-25T07:43:33.869Z,62.40
2019-02-25T07:46:09.283Z,61.90
2019-02-25T07:48:59.369Z,61.60
2019-02-25T07:51:58.365Z,61.20
2019-02-25T07:54:40.004Z,60.60
2019-02-25T07:57:25.684Z,60.00
2019-02-25T08:00:08.777Z,59.70
2019-02-25T08:03:04.649Z,60.00
2019-02-25T08:05:44.406Z,60.00
2019-02-25T08:08:18.787Z,60.30
2019-02-25T08:11:05.784Z,60.00
2019-02-25T08:14:04.896Z,59.60
2019-02-25T08:17:07.001Z,59.30
2019-02-25T08:19:52.757Z,59.80
2019-02-25T08:22:51.807Z,60.80
2019-02-25T08:25:56.891Z,61.00
2019-02-25T08:28:43.834Z,60.50
2019-02-25T08:31:33.469Z,58.10
2019-02-25T08:34:18.732Z,57.40
2019-02-25T08:37:32.557Z,57.40
2019-02-25T08:40:25.076Z,57.00
2019-02-25T08:42:58.847Z,57.00
2019-02-25T08:45:51.390Z,57.10
2019-02-25T08:48:26.801Z,57.10
2019-02-25T08:50:56.255Z,56.50
2019-02-25T08:53:23.700Z,56.90
2019-02-25T08:55:50.951Z,56.60
2019-02-25T08:58:18.253Z,57.00
2019-02-25T09:00:45.652Z,56.90
2019-02-25T09:03:12.980Z,57.00
2019-02-25T09:05:40.278Z,56.40
2019-02-25T09:08:07.629Z,56.50
2019-02-25T09:10:34.938Z,56.40
2019-02-25T09:13:02.264Z,56.00
2019-02-25T09:15:29.577Z,55.70
2019-02-25T09:17:55.912Z,56.30
2019-02-25T09:20:23.213Z,56.40
2019-02-25T09:22:51.844Z,56.40
2019-02-25T09:25:19.089Z,56.50
2019-02-25T09:27:46.387Z,56.40
2019-02-25T09:30:15.041Z,56.50
2019-02-25T09:32:42.835Z,56.30
2019-02-25T09:35:10.355Z,54.90
2019-02-25T09:37:37.686Z,53.40
2019-02-25T09:40:06.323Z,53.80
2019-02-25T09:42:34.783Z,54.00
2019-02-25T09:45:02.091Z,52.10
2019-02-25T09:47:50.203Z,52.50
2019-02-25T09:50:17.589Z,52.30
2019-02-25T09:52:44.864Z,52.50
2019-02-25T09:55:12.319Z,52.00
2019-02-25T09:57:39.649Z,51.80
2019-02-25T10:00:10.098Z,51.20
2019-02-25T10:02:37.449Z,51.80
2019-02-25T10:05:05.374Z,52.90
2019-02-25T10:07:33.747Z,53.50
2019-02-25T10:10:01.028Z,53.60
2019-02-25T10:12:29.512Z,53.50
2019-02-25T10:14:57.171Z,53.50
2019-02-25T10:17:24.598Z,53.20
2019-02-25T10:19:51.980Z,53.10
2019-02-25T10:22:19.280Z,52.00
2019-02-25T10:24:46.609Z,52.30
2019-02-25T10:27:13.922Z,52.30
2019-02-25T10:29:41.270Z,51.40
2019-02-25T10:32:08.694Z,51.10
2019-02-25T10:34:36.002Z,49.60
2019-02-25T10:37:03.309Z,49.20
2019-02-25T10:39:30.607Z,49.20
2019-02-25T10:41:59.504Z,47.50
2019-02-25T10:44:27.082Z,48.30
2019-02-25T10:46:54.393Z,49.20
2019-02-25T10:49:22.479Z,47.40
2019-02-25T10:51:51.098Z,46.90
2019-02-25T10:54:19.600Z,47.50
2019-02-25T10:56:55.858Z,44.40
2019-02-25T10:59:23.974Z,44.20
2019-02-25T11:01:51.309Z,43.50
2019-02-25T11:04:21.784Z,43.70
2019-02-25T11:06:49.702Z,43.90
2019-02-25T11:09:44.403Z,43.50
2019-02-25T11:12:12.252Z,42.00
2019-02-25T11:14:41.105Z,41.20
2019-02-25T11:17:08.756Z,39.90
2019-02-25T11:19:36.027Z,39.10
2019-02-25T11:22:05.361Z,39.30
2019-02-25T11:24:32.786Z,40.20
2019-02-25T11:27:01.063Z,38.60
2019-02-25T11:29:29.830Z,37.50
2019-02-25T11:31:57.271Z,37.90
2019-02-25T11:34:24.893Z,36.80
2019-02-25T11:36:54.450Z,36.60
2019-02-25T11:39:22.535Z,33.30
2019-02-25T11:42:03.295Z,35.60
2019-02-25T11:44:31.612Z,33.70
2019-02-25T11:46:59.079Z,32.90
2019-02-25T11:49:26.448Z,32.60
2019-02-25T11:51:54.945Z,31.80
2019-02-25T11:54:22.216Z,30.00
2019-02-25T11:56:49.504Z,31.70
2019-02-25T11:59:16.842Z,30.60
2019-02-25T12:01:44.152Z,28.60
2019-02-25T12:04:11.493Z,29.00
2019-02-25T12:06:38.823Z,29.60
2019-02-25T12:09:06.138Z,30.10
2019-02-25T12:11:33.842Z,30.10
2019-02-25T12:14:01.140Z,31.90
2019-02-25T12:16:28.497Z,32.20
2019-02-25T12:18:55.724Z,30.90
2019-02-25T12:21:23.021Z,31.40
2019-02-25T12:23:50.326Z,30.90
2019-02-25T12:26:18.768Z,31.00
2019-02-25T12:28:46.105Z,32.60
2019-02-25T12:31:13.436Z,32.80
2019-02-25T12:33:40.797Z,31.60
2019-02-25T12:36:08.202Z,30.90
2019-02-25T12:38:35.463Z,31.80
2019-02-25T12:41:02.748Z,32.10
2019-02-25T12:43:30.116Z,31.90
2019-02-25T12:45:57.455Z,31.60
2019-02-25T12:48:24.808Z,32.70
2019-02-25T12:50:52.093Z,31.90
2019-02-25T12:53:19.408Z,32.20
2019-02-25T12:55:46.691Z,31.30
2019-02-25T12:58:14.168Z,32.20
2019-02-25T13:00:41.664Z,32.70
2019-02-25T13:03:09.045Z,31.80
2019-02-25T13:05:36.356Z,33.10
2019-02-25T13:08:03.862Z,32.90
2019-02-25T13:10:31.181Z,33.20
2019-02-25T13:12:58.502Z,33.40
2019-02-25T13:15:25.797Z,31.90
2019-02-25T13:17:53.163Z,33.60
2019-02-25T13:20:20.540Z,33.00
2019-02-25T13:22:47.800Z,32.80
2019-02-25T13:25:15.129Z,32.50
2019-02-25T13:27:42.414Z,32.20
2019-02-25T13:30:12.217Z,32.50
2019-02-25T13:32:39.626Z,32.50
2019-02-25T13:35:07.237Z,32.10
2019-02-25T13:37:35.024Z,31.60
2019-02-25T13:40:02.653Z,31.70
2019-02-25T13:42:31.333Z,30.80
2019-02-25T13:44:58.781Z,30.30
2019-02-25T13:47:26.305Z,30.00
2019-02-25T13:49:55.529Z,29.20
2019-02-25T13:52:23.051Z,30.10
2019-02-25T13:54:50.496Z,30.10
2019-02-25T13:57:17.951Z,28.80
2019-02-25T13:59:46.529Z,29.70
2019-02-25T14:02:13.960Z,29.70
2019-02-25T14:04:41.395Z,30.00
2019-02-25T14:07:10.059Z,29.20
2019-02-25T14:09:37.551Z,29.80
2019-02-25T14:12:04.881Z,29.10
2019-02-25T14:14:32.250Z,29.50
2019-02-25T14:16:59.697Z,29.40
2019-02-25T14:19:27.157Z,29.40
2019-02-25T14:21:56.104Z,29.70
2019-02-25T14:24:25.206Z,30.00
2019-02-25T14:26:54.533Z,30.80
2019-02-25T14:29:26.162Z,31.40
2019-02-25T14:32:04.318Z,30.70
2019-02-25T14:34:31.884Z,31.90
2019-02-25T14:37:00.216Z,32.10
2019-02-25T14:39:33.020Z,30.70
2019-02-25T14:42:04.267Z,29.80
2019-02-25T14:44:35.159Z,29.10
2019-02-25T14:47:03.393Z,28.70
2019-02-25T14:49:32.729Z,28.70
2019-02-25T14:52:00.205Z,28.70
2019-02-25T14:54:29.483Z,29.80
2019-02-25T14:56:57.176Z,31.20
2019-02-25T14:59:24.657Z,31.30
2019-02-25T15:01:52.130Z,31.50
2019-02-25T15:04:19.567Z,32.20
2019-02-25T15:06:47.323Z,31.70
2019-02-25T15:09:16.510Z,32.40
2019-02-25T15:11:43.959Z,32.60
2019-02-25T15:14:12.855Z,32.70
2019-02-25T15:16:40.834Z,32.60
2019-02-25T15:19:08.265Z,32.50
2019-02-25T15:21:35.908Z,31.70
2019-02-25T15:24:04.691Z,30.70
2019-02-25T15:26:42.255Z,29.70
2019-02-25T15:29:02.908Z,29.20
2019-02-25T15:31:31.220Z,28.80
2019-02-25T15:33:58.680Z,28.30
2019-02-25T15:36:26.991Z,27.80
2019-02-25T15:38:55.624Z,27.10
2019-02-25T15:41:23.061Z,26.80
2019-02-25T15:43:50.601Z,25.80
2019-02-25T15:46:19.631Z,26.00
2019-02-25T15:48:47.222Z,26.60
2019-02-25T15:51:14.873Z,27.80
2019-02-25T15:53:46.284Z,27.50
2019-02-25T15:56:12.352Z,27.80
2019-02-25T15:58:39.894Z,30.00
2019-02-25T16:01:10.024Z,29.80
2019-02-25T16:03:40.872Z,31.30
2019-02-25T16:06:10.143Z,31.10
2019-02-25T16:08:37.799Z,31.70
2019-02-25T16:11:05.324Z,32.00
2019-02-25T16:26:00.670Z,37.00
2019-02-25T16:28:28.968Z,39.60
2019-02-25T16:30:56.913Z,40.80
2019-02-25T16:33:25.938Z,41.40
2019-02-25T16:35:53.679Z,40.70
2019-02-25T16:38:23.150Z,42.80
2019-02-25T16:40:50.356Z,42.60
2019-02-25T16:43:18.942Z,41.60
2019-02-25T16:45:47.776Z,42.00
2019-02-25T16:48:15.216Z,41.60
2019-02-25T16:50:46.301Z,41.50
2019-02-25T16:53:15.420Z,42.60
2019-02-25T16:55:46.743Z,42.30
2019-02-25T16:58:14.022Z,44.10
2019-02-25T17:00:42.010Z,43.20
2019-02-25T17:03:11.191Z,43.20
2019-02-25T17:05:40.273Z,41.40
2019-02-25T17:08:12.427Z,42.80
2019-02-25T17:10:39.965Z,43.60
2019-02-25T17:13:08.106Z,43.50
2019-02-25T17:15:36.929Z,44.30
2019-02-25T17:18:04.365Z,44.50
2019-02-25T17:20:32.089Z,45.10
2019-02-25T17:22:59.806Z,45.90
2019-02-25T17:25:31.309Z,46.20
2019-02-25T17:27:56.702Z,46.70
2019-02-25T18:12:31.747Z,55.80
2019-02-25T18:15:03.512Z,57.60
2019-02-25T18:17:32.956Z,57.80
2019-02-25T18:20:00.257Z,57.30
2019-02-25T18:22:27.702Z,57.00
2019-02-25T18:24:55.300Z,56.10
2019-02-25T18:27:22.725Z,55.40
2019-02-25T18:29:52.546Z,54.70
2019-02-25T18:32:21.059Z,55.00
2019-02-25T18:34:50.029Z,54.60
2019-02-25T18:37:18.330Z,54.40
2019-02-25T18:39:47.702Z,54.60
2019-02-25T18:42:15.976Z,55.00
2019-02-25T18:44:47.002Z,55.40
2019-02-25T18:47:16.450Z,55.70
2019-02-25T18:49:44.613Z,55.60
2019-02-25T18:52:12.213Z,55.90
2019-02-25T18:54:43.319Z,56.00
2019-02-25T18:57:11.791Z,56.40
2019-02-25T18:59:39.496Z,56.60
2019-02-25T19:02:08.023Z,56.30
2019-02-25T19:04:37.581Z,56.40
2019-02-25T19:07:07.937Z,55.90
2019-02-25T19:09:36.097Z,56.20
2019-02-25T19:12:05.856Z,55.80
2019-02-25T19:14:35.913Z,55.80
2019-02-25T19:17:06.531Z,55.80
2019-02-25T19:19:38.164Z,55.20
2019-02-25T19:22:06.027Z,54.80
2019-02-25T19:24:37.539Z,54.50
2019-02-25T19:27:04.359Z,54.40
2019-02-25T19:29:32.696Z,54.30
2019-02-25T19:32:01.161Z,54.20
2019-02-25T19:34:28.843Z,54.80
2019-02-25T19:37:00.705Z,54.10
2019-02-25T19:39:25.950Z,54.20
2019-02-25T19:41:56.246Z,53.90
2019-02-25T19:44:23.347Z,54.40
2019-02-25T19:46:53.177Z,54.40
2019-02-25T19:49:22.136Z,54.40
2019-02-25T19:51:50.712Z,54.00
2019-02-25T19:54:19.520Z,53.90
2019-02-25T19:56:50.686Z,54.20
2019-02-25T19:59:19.370Z,54.40
2019-02-25T20:01:47.842Z,54.50
2019-02-25T20:04:16.439Z,55.00
2019-02-25T20:06:46.815Z,55.10
2019-02-25T20:09:15.850Z,55.60
2019-02-25T20:11:45.277Z,55.80
2019-02-25T20:14:16.573Z,55.70
2019-02-25T20:16:44.300Z,56.70
2019-02-25T20:19:12.292Z,56.90
2019-02-25T20:21:40.250Z,57.80
2019-02-25T20:24:12.362Z,58.40
2019-02-25T20:26:37.637Z,58.90
2019-02-25T20:29:06.347Z,59.40
2019-02-25T20:31:37.653Z,59.80
2019-02-25T20:34:05.249Z,59.70
2019-02-25T20:36:34.156Z,59.70
2019-02-25T20:39:01.909Z,60.00
2019-02-25T20:41:31.479Z,60.70
2019-02-25T20:44:00.638Z,60.70
2019-02-25T20:46:30.724Z,60.60
2019-02-25T20:48:59.932Z,60.40
2019-02-25T20:51:29.854Z,60.70
2019-02-25T20:53:57.368Z,60.20
2019-02-25T20:56:26.672Z,60.00
2019-02-25T20:58:55.749Z,59.90
2019-02-25T21:01:23.432Z,59.70
2019-02-25T21:03:52.674Z,59.30
2019-02-25T21:06:21.260Z,58.80
2019-02-25T21:08:49.117Z,58.90
2019-02-25T21:11:16.831Z,58.80
2019-02-25T21:13:44.563Z,58.80
2019-02-25T21:16:12.173Z,58.80
2019-02-25T21:18:40.949Z,59.00
2019-02-25T21:21:10.121Z,59.20
2019-02-25T21:23:38.318Z,58.00
2019-02-25T21:26:07.450Z,58.10
2019-02-25T21:28:36.493Z,58.60
2019-02-25T21:31:07.139Z,59.10
2019-02-25T21:33:34.295Z,59.40
2019-02-25T21:36:01.933Z,59.80
2019-02-25T21:38:30.288Z,60.70
2019-02-25T21:40:58.122Z,61.40
2019-02-25T21:43:28.399Z,61.90
2019-02-25T21:45:56.685Z,62.20
2019-02-25T21:48:25.699Z,62.70
2019-02-25T21:50:54.032Z,62.80
2019-02-25T21:53:21.713Z,63.10
2019-02-25T21:55:52.969Z,63.40
2019-02-25T21:58:21.441Z,63.20
2019-02-25T22:00:49.946Z,63.30
2019-02-25T22:03:19.454Z,63.10
2019-02-25T22:05:49.352Z,63.20
2019-02-25T22:08:20.035Z,63.10
2019-02-25T22:10:46.337Z,62.80
2019-02-25T22:13:15.945Z,62.80
2019-02-25T22:15:45.305Z,62.60
2019-02-25T22:18:14.108Z,62.50
2019-02-25T22:20:42.736Z,62.00
2019-02-25T22:23:11.241Z,62.30
2019-02-25T22:25:38.766Z,62.70
2019-02-25T22:28:07.817Z,63.40
2019-02-25T22:30:36.758Z,63.60
2019-02-25T22:33:04.820Z,63.40
2019-02-25T22:35:37.417Z,63.30
2019-02-25T22:38:03.138Z,63.50
2019-02-25T22:40:32.229Z,63.40
2019-02-25T22:43:00.084Z,63.60
2019-02-25T22:45:27.678Z,62.90
2019-02-25T22:47:55.320Z,62.50
2019-02-25T22:50:22.876Z,62.50
2019-02-25T22:52:55.613Z,62.30
2019-02-25T22:55:22.114Z,62.70
2019-02-25T22:57:51.900Z,62.70
2019-02-25T23:00:28.200Z,62.90
2019-02-25T23:02:57.695Z,62.70
2019-02-25T23:05:25.576Z,62.50
2019-02-25T23:07:54.698Z,62.50
2019-02-25T23:10:24.197Z,63.80
2019-02-25T23:12:52.982Z,63.60
2019-02-25T23:15:22.696Z,63.70
2019-02-25T23:17:50.106Z,64.10
2019-02-25T23:20:18.705Z,63.80
2019-02-25T23:22:46.356Z,64.00
2019-02-25T23:25:13.986Z,63.80
2019-02-25T23:27:41.459Z,63.90
2019-02-25T23:30:09.208Z,64.00
2019-02-25T23:32:38.811Z,63.80
2019-02-25T23:35:09.457Z,63.70
2019-02-25T23:37:35.595Z,63.50
2019-02-25T23:40:06.730Z,63.90
2019-02-25T23:42:35.281Z,64.20
2019-02-25T23:45:02.642Z,64.50
2019-02-25T23:47:31.657Z,65.00
2019-02-25T23:50:01.164Z,65.10
2019-02-25T23:52:30.977Z,65.00
2019-02-25T23:54:58.598Z,65.30
2019-02-25T23:57:28.295Z,65.60
2019-02-25T23:59:55.774Z,65.40
